Latest Weather Observations for Casey*

IDT60801

Issued at 6:31 pm EST Monday 30 May 2016 (issued every 30 minutes, with the page automatically refreshed every 10 minutes)

About weather observations | Map of weather stations | Latest weather observations for ANT | Other Formats
Station Details ID: 300017 Name: CASEY Lat: -66.28 Lon: 110.52 Height: 40.0 m
Data from the previous 72 hours. | See also: Recent months at Casey*
Date/Time
EST
Temp
°C
App
Temp
°C
Dew
Point
Rel
Hum
%
Delta-T
°C
Wind Press
QNH
hPa
Press
MSL
hPa
Rain
since 9 am
mm
Dir
 
Spd
km/h
Gust
km/h
Spd
kts
Gust
kts
30/06:30pm -2.8 -20.5 -8.4 65 - ENE 78 89 42 48 960.6 - -
30/06:00pm -2.8 -21.3 -8.6 64 - ENE 82 95 44 51 959.9 - -
30/05:30pm -3.1 -22.6 -8.9 64 - ENE 87 96 47 52 959.3 - -
30/05:00pm -3.1 -21.9 -9.5 61 - ENE 83 93 45 50 958.9 - -
30/04:30pm -3.7 -22.9 -9.5 64 - ENE 85 95 46 51 958.5 - -
30/04:00pm -4.2 -22.4 -9.2 68 - ENE 80 93 43 50 959.0 959.5 -
30/03:30pm -4.1 -24.0 -9.5 66 - ENE 89 98 48 53 958.7 - -
30/03:00pm -5.5 -25.9 -10.4 68 - E 91 104 49 56 958.6 - -
30/02:30pm -5.8 -26.2 -10.6 69 - E 91 102 49 55 958.2 - -
30/02:00pm -5.8 -25.0 -10.0 72 - E 85 95 46 51 958.3 - -
30/01:30pm -6.4 -26.4 -10.6 72 - E 89 100 48 54 958.1 - -
30/01:00pm -6.8 -28.6 -11.3 70 - E 98 109 53 59 957.7 958.2 -
30/12:30pm -7.1 -30.0 -10.9 74 - E 104 122 56 66 957.4 - -
30/12:10pm -7.3 -30.2 -10.8 76 - E 104 122 56 66 957.1 - -
30/12:00pm -7.3 -31.1 -11.1 74 - E 109 124 59 67 956.7 - -
30/11:30am -7.7 -32.3 -10.4 81 - E 113 132 61 71 956.9 - -
30/11:00am -7.6 -33.4 -9.8 84 - E 120 141 65 76 956.3 - -
30/10:50am -7.2 -33.0 -9.7 82 - E 120 141 65 76 956.2 - -
30/10:30am -7.0 -33.6 -9.2 84 - E 124 139 67 75 956.0 - -
30/10:15am -7.0 -32.8 -8.9 86 - E 120 139 65 75 956.0 - -
30/10:00am -7.2 -33.0 -9.1 86 - E 120 135 65 73 956.1 956.6 -
30/09:45am -7.4 -33.2 -9.3 86 - E 120 139 65 75 956.1 - -
30/09:30am -7.3 -33.1 -9.4 85 - E 120 135 65 73 956.3 - -
30/09:00am -7.7 -33.0 -9.6 86 - E 117 137 63 74 956.6 - -
30/08:31am -7.8 -33.4 -9.6 87 - E 119 137 64 74 957.0 - -
30/08:30am -7.9 -33.7 -9.7 87 - E 120 137 65 74 957.2 - -
30/08:01am -8.4 -33.3 -9.9 89 - E 115 135 62 73 957.0 - -
30/08:00am -8.5 -33.4 -10.0 89 - E 115 132 62 71 957.1 - -
30/07:30am -8.4 -32.9 -9.9 89 - E 113 132 61 71 957.7 - -
30/07:03am -8.6 -34.5 -10.1 89 - E 120 139 65 75 957.4 - -
30/07:00am -8.4 -34.6 -9.9 89 - E 122 139 66 75 957.2 957.7 -
30/06:30am -7.7 -34.6 -9.0 90 - E 126 145 68 78 956.6 - -
30/06:20am -7.4 -32.2 -8.8 90 - E 115 139 62 75 956.8 - -
30/06:00am -8.0 -33.2 -9.3 90 - E 117 132 63 71 956.8 - -
30/05:39am -8.5 -32.3 -10.0 89 - E 109 128 59 69 957.8 - -
30/05:30am -8.8 -31.6 -10.4 88 - E 104 119 56 64 958.6 - -
30/05:21am -8.8 -30.9 -10.4 88 - E 100 119 54 64 959.5 - -
30/05:00am -8.7 -31.2 -10.5 87 - E 102 117 55 63 960.4 - -
30/04:44am -8.6 -30.3 -10.2 88 - E 98 117 53 63 960.4 - -
30/04:30am -8.6 -30.3 -10.2 88 - E 98 113 53 61 960.7 - -
30/04:00am -8.6 -29.7 -10.2 88 - E 95 109 51 59 961.5 962.0 -
30/03:42am -8.5 -29.6 -10.3 87 - E 95 113 51 61 962.3 - -
30/03:30am -8.5 -29.6 -10.1 88 - E 95 109 51 59 962.2 - -
30/03:00am -8.3 -29.6 -9.9 88 - E 96 107 52 58 962.6 - -
30/02:30am -8.2 -28.5 -9.7 89 - E 91 104 49 56 963.2 - -
30/02:00am -7.9 -25.8 -10.1 84 - ENE 78 93 42 50 964.6 - -
30/01:57am -8.0 -25.5 -10.4 83 - E 76 87 41 47 965.0 - -
30/01:52am -7.8 -21.7 -10.9 78 - E 57 76 31 41 965.6 - -
30/01:30am -7.9 -24.2 -11.4 76 - E 69 78 37 42 966.5 - -
30/01:00am -8.2 -24.5 -11.7 76 - E 69 80 37 43 967.0 967.5 -
30/12:36am -8.2 -24.1 -12.2 73 - ENE 67 74 36 40 967.7 - -
30/12:33am -8.2 -20.2 -12.3 72 - E 46 70 25 38 968.2 - -
30/12:30am -8.3 -18.9 -12.4 72 - E 39 52 21 28 968.7 - -
30/12:29am -8.4 -18.6 -12.4 73 - E 37 50 20 27 968.8 - -
30/12:00am -10.8 -17.4 -15.4 69 - S 17 22 9 12 969.3 - -
 
Date/Time
EST
Temp
°C
App
Temp
°C
Dew
Point
Rel
Hum
%
Delta-T
°C
Wind Press
QNH
hPa
Press
MSL
hPa
Rain
since 9 am
mm
Dir
 
Spd
km/h
Gust
km/h
Spd
kts
Gust
kts
29/11:30pm -11.3 -17.5 -15.0 74 - S 15 19 8 10 969.8 - -
29/11:00pm -10.3 -18.5 -13.5 77 - S 26 37 14 20 970.0 - -
29/10:30pm -10.9 -20.3 -14.3 76 - SSE 32 39 17 21 970.7 - -
29/10:00pm -11.5 -19.1 -15.2 74 - SSE 22 28 12 15 972.0 972.5 -
29/09:30pm -12.2 -17.7 -15.9 74 - ESE 11 17 6 9 972.5 - -
29/09:00pm -12.6 -17.4 -16.1 75 - S 7 11 4 6 972.9 - -
29/08:30pm -12.0 -16.6 -14.0 85 - E 7 19 4 10 973.4 - -
29/08:00pm -12.1 -17.9 -13.7 88 - NW 13 22 7 12 973.6 - -
29/07:30pm -14.7 -19.5 -16.5 86 - S 7 11 4 6 973.6 - -
29/07:00pm -14.6 -20.1 -16.3 87 - S 11 13 6 7 974.0 974.5 -
29/06:30pm -14.9 -20.4 -16.6 87 - S 11 13 6 7 974.3 - -
29/06:00pm -14.8 -19.6 -16.3 88 - SSW 7 11 4 6 974.6 - -
29/05:30pm -14.4 -19.2 -16.1 87 - S 7 9 4 5 974.5 - -
29/05:00pm -14.1 -19.2 -15.4 90 - SSE 9 11 5 6 974.8 - -
29/04:30pm -14.4 -20.3 -16.1 87 - S 13 17 7 9 974.7 - -
29/04:00pm -13.7 -19.2 -15.7 85 - SE 11 17 6 9 974.7 975.2 -
29/03:30pm -13.3 -18.4 -15.6 83 - SE 9 15 5 8 975.2 - -
29/03:00pm -10.8 -17.6 -12.0 91 - NNE 19 28 10 15 975.0 - -
29/02:30pm -10.5 -17.9 -12.0 89 - NNE 22 30 12 16 975.1 - -
29/02:00pm -10.4 -18.9 -11.9 89 - NE 28 32 15 17 975.2 - -
29/01:30pm -10.1 -17.8 -11.1 92 - NNE 24 33 13 18 975.0 - -
29/01:00pm -10.0 -16.9 -11.3 90 - NNE 20 28 11 15 975.2 975.7 -
29/12:30pm -9.8 -16.5 -10.8 92 - NNE 19 22 10 12 975.3 - -
29/12:00pm -10.3 -16.3 -11.6 90 - NNE 15 17 8 9 975.1 - -
29/11:30am -11.2 -17.3 -12.6 89 - NNE 15 24 8 13 974.9 - -
29/11:00am -11.5 -17.2 -13.1 88 - NE 13 15 7 8 974.6 - -
29/10:30am -11.7 -18.2 -13.0 90 - NNE 17 20 9 11 974.5 - -
29/10:00am -12.2 -19.1 -13.5 90 - NNE 19 22 10 12 974.7 - -
29/09:30am -11.8 -17.9 -13.2 89 - NNE 15 19 8 10 975.0 - -
29/09:00am -11.3 -17.8 -13.2 86 - NNE 17 20 9 11 975.3 - -
29/08:30am -11.6 -18.1 -13.3 87 - NNE 17 20 9 11 975.4 - -
29/08:00am -10.9 -17.0 -12.9 85 - NE 15 20 8 11 975.5 - -
29/07:30am -11.5 -17.6 -13.6 84 - NNE 15 17 8 9 975.6 - -
29/07:00am -11.3 -17.1 -14.2 79 - NE 13 17 7 9 975.7 976.2 -
29/06:30am -10.0 -16.1 -12.9 79 - NE 15 19 8 10 975.9 - -
29/06:00am -10.3 -16.4 -13.2 79 - NE 15 17 8 9 975.9 - -
29/05:30am -10.2 -16.3 -13.0 80 - NE 15 17 8 9 976.1 - -
29/05:00am -9.8 -15.5 -13.1 77 - NE 13 13 7 7 976.5 - -
29/04:30am -10.4 -15.7 -12.9 82 - NNE 11 13 6 7 976.6 - -
29/04:00am -9.6 -14.9 -13.0 76 - NE 11 13 6 7 976.9 977.4 -
29/03:30am -9.9 -15.2 -13.0 78 - NNE 11 11 6 6 977.0 - -
29/03:00am -9.7 -14.7 -13.1 76 - NE 9 9 5 5 977.3 - -
29/02:30am -10.4 -15.4 -14.3 73 - NE 9 11 5 6 977.5 - -
29/02:00am -10.1 -15.1 -14.0 73 - ENE 9 11 5 6 977.8 - -
29/01:30am -9.8 -14.5 -14.2 70 - E 7 9 4 5 978.0 - -
29/01:00am -9.1 -13.5 -13.4 71 - SSE 6 7 3 4 978.2 978.8 -
29/12:30am -9.2 -13.8 -13.6 70 - SSE 7 7 4 4 978.3 - -
29/12:00am -10.4 -13.7 -14.6 71 - CALM 0 0 0 0 978.6 - -
 
Date/Time
EST
Temp
°C
App
Temp
°C
Dew
Point
Rel
Hum
%
Delta-T
°C
Wind Press
QNH
hPa
Press
MSL
hPa
Rain
since 9 am
mm
Dir
 
Spd
km/h
Gust
km/h
Spd
kts
Gust
kts
28/11:30pm -8.8 -12.1 -13.8 67 - CALM 0 0 0 0 979.1 - -
28/11:00pm -9.5 -14.5 -13.1 75 - N 9 11 5 6 979.4 - -
28/10:30pm -10.3 -15.4 -14.7 70 - ENE 9 15 5 8 979.8 - -
28/10:00pm -9.6 -15.0 -14.2 69 - SSE 11 13 6 7 980.0 980.6 -
28/09:30pm -6.9 -11.3 -12.3 65 - E 6 6 3 3 980.5 - -
28/09:00pm -8.0 -12.4 -12.8 68 - ENE 6 7 3 4 981.0 - -
28/08:30pm -8.0 -12.4 -12.5 70 - NE 6 9 3 5 981.4 - -
28/08:00pm -9.4 -16.0 -14.5 66 - ESE 17 20 9 11 981.7 - -
28/07:30pm -10.4 -17.9 -14.3 73 - ESE 22 24 12 13 982.0 - -
28/07:00pm -8.8 -16.3 -14.0 66 - SE 22 24 12 13 982.4 983.0 -
28/06:30pm -9.0 -16.8 -13.4 70 - SE 24 26 13 14 982.8 - -
28/06:00pm -9.4 -17.2 -12.8 76 - SE 24 26 13 14 983.0 - -
28/05:30pm -9.0 -16.8 -12.0 79 - SE 24 26 13 14 983.3 - -
28/05:00pm -8.9 -15.8 -11.2 83 - SE 20 22 11 12 983.9 - -
28/04:30pm -8.3 -15.2 -10.5 84 - SE 20 22 11 12 984.4 - -
28/04:00pm -7.8 -14.4 -9.7 86 - SE 19 20 10 11 984.8 985.3 -
28/03:30pm -8.0 -14.9 -10.1 85 - SE 20 24 11 13 985.3 - -
28/03:00pm -7.8 -15.1 -10.3 82 - SE 22 26 12 14 985.8 - -
28/02:30pm -6.9 -14.3 -12.2 66 - ESE 22 26 12 14 986.5 - -
28/02:00pm -8.2 -14.4 -14.6 60 - SSE 15 19 8 10 987.0 - -
28/01:30pm -8.6 -15.6 -14.7 61 - SSE 19 22 10 12 987.6 - -
28/01:00pm -8.8 -15.4 -14.5 63 - SSE 17 17 9 9 988.1 988.6 -
28/12:30pm -8.9 -14.7 -14.8 62 - SSE 13 15 7 8 988.8 - -
28/12:00pm -9.5 -15.3 -15.0 64 - SE 13 15 7 8 989.3 - -
28/11:30am -8.2 -13.2 -14.4 61 - E 9 15 5 8 989.9 - -
28/11:00am -8.1 -13.9 -13.9 63 - NE 13 15 7 8 990.4 - -
28/10:30am -7.6 -14.1 -13.6 62 - ENE 17 20 9 11 990.8 - -
28/10:00am -8.5 -15.0 -13.7 66 - NE 17 24 9 13 991.4 991.9 -
28/09:30am -8.3 -15.4 -13.5 66 - NE 20 28 11 15 991.9 - -
28/09:00am -7.8 -15.7 -13.8 62 - ENE 24 30 13 16 992.5 - -
28/08:55am -7.6 -16.2 -13.4 63 - ENE 28 30 15 16 992.5 - -
28/08:30am -8.4 -19.1 -14.4 62 - E 39 46 21 25 992.9 - -
28/08:23am -7.8 -18.2 -14.2 60 - E 37 43 20 23 992.9 - -
28/08:00am -8.3 -16.9 -13.5 66 - S 28 35 15 19 993.3 - -
28/07:30am -9.3 -17.4 -11.9 81 - SE 26 32 14 17 994.2 - -
28/07:00am -10.1 -17.5 -13.2 78 - SE 22 30 12 16 995.2 995.7 -
28/06:30am -11.0 -18.5 -14.2 77 - SE 22 26 12 14 996.0 - -
28/06:00am -9.6 -15.7 -12.9 77 - ESE 15 17 8 9 996.6 - -
28/05:30am -10.3 -14.9 -13.4 78 - NE 7 9 4 5 997.1 - -
28/05:00am -10.4 -15.0 -13.2 80 - NE 7 11 4 6 997.8 - -
28/04:30am -10.7 -17.2 -13.2 82 - NE 17 20 9 11 998.1 - -
28/04:00am -9.6 -16.0 -11.6 85 - NE 17 20 9 11 998.6 999.2 -
28/03:30am -9.0 -14.9 -10.6 88 - ENE 15 20 8 11 998.9 - -
28/03:00am -9.1 -14.7 -10.6 89 - E 13 15 7 8 999.3 - -
28/02:30am -8.9 -13.3 -10.4 89 - ESE 7 11 4 6 999.6 - -
28/02:00am -9.1 -14.7 -10.6 89 - ESE 13 15 7 8 1000.2 - -
28/01:30am -9.7 -14.6 -11.3 88 - SSE 9 11 5 6 1000.6 - -
28/01:00am -10.0 -14.9 -11.5 89 - S 9 11 5 6 1001.2 1001.8 -
28/12:30am -10.1 -15.4 -11.7 88 - SSE 11 13 6 7 1001.7 - -
28/12:00am -10.3 -16.7 -11.8 89 - SSE 17 17 9 9 1001.9 - -
 
Date/Time
EST
Temp
°C
App
Temp
°C
Dew
Point
Rel
Hum
%
Delta-T
°C
Wind Press
QNH
hPa
Press
MSL
hPa
Rain
since 9 am
mm
Dir
 
Spd
km/h
Gust
km/h
Spd
kts
Gust
kts
27/11:30pm -10.6 -17.0 -12.3 87 - SSE 17 20 9 11 1002.2 - -
27/11:00pm -10.7 -17.1 -12.3 88 - SSE 17 19 9 10 1002.5 - -
27/10:30pm -9.7 -15.3 -11.3 88 - S 13 15 7 8 1002.7 - -
27/10:00pm -9.1 -12.2 -10.6 89 - CALM 0 0 0 0 1002.9 1003.5 -
27/09:30pm -9.1 -14.3 -10.6 89 - N 11 13 6 7 1003.0 - -
27/09:00pm -8.8 -14.0 -10.3 89 - NNE 11 15 6 8 1003.3 - -

Other Formats:

Comma delimited format used in spreadsheet applications
http://www.bom.gov.au/fwo/IDT60803/IDT60803.89611.axf

JavaScript Object Notation format (JSON) in row-major order
http://www.bom.gov.au/fwo/IDT60803/IDT60803.89611.json